EDT,Max TemperatureF,Mean TemperatureF,Min TemperatureF,Max Dew PointF,MeanDew PointF,Min DewpointF,Max Humidity, Mean Humidity, Min Humidity, Max Sea Level PressureIn, Mean Sea Level PressureIn, Min Sea Level PressureIn, Max VisibilityMiles, Mean VisibilityMiles, Min VisibilityMiles, Max Wind SpeedMPH, Mean Wind SpeedMPH, Max Gust SpeedMPH,PrecipitationIn, CloudCover, Events, WindDirDegrees
2013-10-1,70,58,47,57,50,45,96,75,40,30.23,30.18,30.14,10,7,0,10,2,,0.00,4,Fog,307
2013-10-2,72,62,52,57,52,48,94,72,44,30.26,30.22,30.19,10,9,1,12,2,,0.00,1,,304
2013-10-3,72,63,54,58,55,52,94,79,53,30.24,30.21,30.19,10,9,4,5,1,,0.00,2,,159
2013-10-4,74,65,56,60,56,52,94,73,46,30.27,30.23,30.20,10,9,4,10,2,,0.00,1,,308
2013-10-5,76,64,53,61,57,52,96,77,44,30.26,30.22,30.17,10,9,0,7,1,,0.00,1,Fog,122
2013-10-6,73,65,57,59,57,55,94,77,55,30.17,30.08,30.00,10,10,4,8,2,,0.00,2,,145
2013-10-7,63,56,48,61,50,41,96,79,58,30.11,29.98,29.90,10,8,1,16,4,23,0.97,4,Rain,315
2013-10-8,59,50,42,45,40,36,81,69,44,30.28,30.20,30.10,10,10,7,9,3,,0.00,0,,45
2013-10-9,63,52,42,41,37,29,88,60,29,30.30,30.24,30.20,10,10,10,9,3,,0.00,0,,19
2013-10-10,62,52,43,56,44,32,90,67,47,30.20,30.14,30.08,10,10,2,13,4,22,0.00,4,,324
2013-10-11,67,60,52,48,45,40,84,58,38,30.09,30.06,30.03,10,10,10,15,7,22,0.00,3,,308
2013-10-12,63,59,55,56,53,48,91,80,67,30.18,30.12,30.06,10,10,7,6,2,,0.00,8,,326
2013-10-13,64,60,57,58,56,52,96,87,64,30.31,30.25,30.18,10,8,0,7,2,,0.00,7,Rain,36
2013-10-14,61,58,54,56,54,53,96,89,75,30.33,30.29,30.24,10,8,0,7,2,,0.00,8,Fog-Rain,63
2013-10-15,63,56,48,52,49,46,95,81,60,30.27,30.20,30.14,10,9,2,5,0,,0.00,3,,133
2013-10-16,64,55,46,54,50,45,95,80,59,30.16,30.08,30.03,10,10,4,5,0,,0.00,4,,141
2013-10-17,63,58,54,60,54,49,96,88,66,30.04,29.97,29.90,10,9,2,17,2,26,0.00,8,Rain,274
2013-10-18,61,52,43,50,43,38,94,74,45,30.07,30.02,29.98,10,10,3,14,4,24,0.00,3,,335
2013-10-19,58,53,48,52,45,34,95,78,41,30.02,29.95,29.90,10,9,3,22,3,33,0.00,6,,279
2013-10-20,57,46,36,36,32,25,83,61,30,30.12,30.05,29.97,10,10,10,13,5,18,0.00,2,,352
2013-10-21,59,48,36,45,40,34,93,75,56,30.15,30.09,30.02,10,10,10,8,1,,0.00,1,,138
2013-10-22,60,53,46,46,40,38,93,62,43,30.03,29.95,29.85,10,10,10,16,5,28,0.00,5,,273
2013-10-23,52,42,33,41,31,22,78,64,46,29.98,29.82,29.74,10,10,5,25,14,43,0.12,5,Rain,289
2013-10-24,41,36,32,32,27,23,95,70,58,30.13,30.06,29.98,10,9,2,17,7,25,0.00,8,Rain-Snow,282
2013-10-25,36,32,28,32,24,20,96,72,55,30.31,30.25,30.14,10,10,1,16,7,25,0.02,6,Snow,313
2013-10-26,51,37,23,30,22,12,91,59,21,30.28,30.15,30.04,10,10,10,26,3,36,0.00,3,,255
2013-10-27,58,50,42,42,33,30,73,55,35,30.15,30.08,30.03,10,10,10,28,14,34,0.00,3,,280
2013-10-28,55,52,46,49,46,43,95,79,67,30.30,30.23,30.14,10,9,0,9,4,21,0.00,8,Fog-Rain,281
2013-10-29,62,54,47,49,46,44,95,74,52,30.37,30.32,30.29,10,9,2,7,2,,0.00,5,,147
2013-10-30,67,59,51,51,48,45,95,70,51,30.31,30.27,30.23,10,9,2,20,3,31,0.00,7,Rain,270
2013-10-31,60,57,54,56,51,47,92,79,66,30.24,30.09,29.89,10,10,5,12,3,29,0.00,5,Rain,158